Aaron, Georgia
Current Conditions -  °F | °C
As of 11:15 AM on Thursday 27 Nov 2014 (Local Time) from KTBR Reporting Station
Clear Clear  
Wind Chill: 11°   Ceiling: Unl
Heat Index: 11°   Visibility: 10mi
Dew Point:   Wind: 18mph
Humidity: 49%   Direction: 320°NW
Pressure: 30.21"   Gusts: 25mph
Location:  32.5686°N, 81.9052°W
Report Text: KTBR 271615Z AUTO 32016G22KT 10SM CLR 11/01 A3021 RMK AO2 T01130009
Loading
Personal Weather Stations






























Interactive Weather Map New forecast layout! Learn more

10-Day Weather Forecast

Advertisements
Track Severe Weather on mobile